Details From KAQR - Atoka Muni
To KAVK - Alva Rgnl
Flight Number -
Tags Standard
Created
Modified
Stats Distance 188 nm / 349 km
Max Altitude 0 ft / 0 m
Waypoints 2
Social Downloads 1
Likes 0
Share VATSIM

Download

Looking for another format? Having issues loading an existing format? Contact us
Advertisement - Login to hide

Notes

None

Route

KAQR KAVK

ID Type Via Altitude Latitude Longitude Leg Dist Tot Dist Heading (true) Name
O KAQR APT - 0 ft / 0 m 34.40248˚ -96.14796˚ - 0 nm - ATOKA MUNI
O KAVK APT - 0 ft / 0 m 36.76944˚ -98.67500˚ 188 nm 188 nm 320° / 318° -

Altitude Profile

Advertisement - Login to hide

Weather


0- 5 10 15 20 25 30 35+ Temperature / ° C

Clouds and Precipitation
Forecast for 2017-12-14 12:00 UTC. Updated 44 minutes ago

Ground ~20,000 ft ~40,000 ft Winds

KAQR

Details ICAO KAQR
Name ATOKA MUNI
Region United States
Timezone America/Chicago (UTC-6.0)
Stats Elevation 590 ft / 180 m (AMSL)
Location 34.398339° -96.148061°
Runways 1
Magnetic Variation 2.867° E

METAR

KAQR 140755Z AUTO 00000KT 10SM CLR 00/M05 A2993 RMK AO2

Decode

TAF

Not found

Departure Runways

ID Width Length Bearing (true) Bearing (mag) Surface Threshold Offset Overrun Length
18 40 ft / 12 m 3,024 ft / 922 m 181.20° 178.33° Asphalt 197 ft / 60 m 0 ft / 0 m
36 40 ft / 12 m 3,024 ft / 922 m 1.20° 358.33° Asphalt 233 ft / 71 m 0 ft / 0 m

KAVK

Details ICAO KAVK
Name ALVA RGNL
Region United States
Timezone America/Chicago (UTC-6.0)
Stats Elevation 1,474 ft / 449 m (AMSL)
Location 36.772079° -98.670421°
Runways 2
Magnetic Variation 4.449° E

METAR

KAVK 140755Z AUTO 36010KT 10SM OVC060 07/M06 A3003 RMK AO2

Decode

TAF

Not found

Destination Runways

ID Width Length Bearing (true) Bearing (mag) Surface Threshold Offset Overrun Length
08 170 ft / 52 m 1,868 ft / 570 m 90.00° 85.55° Dirt 0 ft / 0 m 0 ft / 0 m
17 75 ft / 23 m 4,393 ft / 1,339 m 180.14° 175.69° Asphalt 0 ft / 0 m 0 ft / 0 m
26 170 ft / 52 m 1,868 ft / 570 m 270.00° 265.55° Dirt 0 ft / 0 m 0 ft / 0 m
35 75 ft / 23 m 4,393 ft / 1,339 m 0.14° 355.69° Asphalt 145 ft / 44 m 0 ft / 0 m